Data for 01/25/2007

Time Sea-Level Adjusted Pressure Absolute Pressure Temperature Relative Humidity Dew Point   
(mb) (inHg) (mb) (inHg) (C) (F) (%) (C) (F)
00:05 1026 30.3 855 25.25 -0.2 31.7 60 -7.1 19.3
00:10 1025 30.27 855 25.25 0 32.1 59 -7 19.4
00:15 1025 30.27 855 25.25 0.1 32.2 59 -6.9 19.6
00:20 1025 30.27 855 25.25 0 32.1 60 -6.8 19.8
00:25 1025 30.27 855 25.25 0.2 32.4 60 -6.7 19.9
00:30 1025 30.27 855 25.25 0.3 32.6 59 -6.8 19.7
00:35 1025 30.27 854 25.22 -0.3 31.5 61 -6.8 19.8
00:40 1025 30.27 854 25.22 -0.8 30.6 62 -7.1 19.2
00:45 1025 30.27 854 25.22 -0.6 30.9 61 -7.1 19.2
00:50 1025 30.27 854 25.22 -0.3 31.4 60 -7.1 19.2
00:55 1025 30.27 854 25.22 -0.2 31.6 61 -6.9 19.6
01:00 1025 30.27 854 25.22 -0.2 31.6 60 -7 19.4
01:05 1025 30.27 854 25.22 -0.3 31.5 62 -6.7 19.9
01:10 1025 30.27 854 25.22 -0.2 31.7 61 -6.9 19.6
01:15 1025 30.27 854 25.22 -0.1 31.8 61 -6.7 19.9
01:20 1025 30.27 854 25.22 -0.2 31.7 61 -6.7 19.9
01:25 1025 30.27 854 25.22 -0.2 31.6 60 -7 19.4
01:30 1025 30.27 854 25.22 -0.5 31.1 61 -7.1 19.2
01:35 1025 30.27 854 25.22 -0.8 30.6 62 -7.2 19.1
01:40 1025 30.27 854 25.22 -0.9 30.4 62 -7.3 18.8
01:45 1025 30.27 854 25.22 -0.4 31.3 61 -7.1 19.2
01:50 1025 30.27 854 25.22 -0 31.9 60 -7 19.5
01:55 1025 30.27 854 25.22 0.1 32.2 59 -6.9 19.5
02:00 1025 30.27 854 25.22 0.7 33.3 57 -6.8 19.7
02:05 1025 30.27 854 25.22 0.2 32.3 59 -7 19.4
02:10 1025 30.27 854 25.22 -0.2 31.6 59 -7.3 18.9
02:15 1025 30.27 854 25.22 -0.5 31.1 61 -7.2 19
02:20 1025 30.27 854 25.22 -0.9 30.3 63 -7 19.4
02:25 1025 30.27 854 25.22 -0.9 30.4 63 -7.1 19.3
02:30 1025 30.27 854 25.22 -0.9 30.3 64 -6.9 19.7
02:35 1025 30.27 854 25.22 -0.6 31 62 -6.9 19.6
02:40 1025 30.27 854 25.22 -0.6 31 63 -6.8 19.7
02:45 1025 30.27 854 25.22 -0.6 31 62 -6.9 19.7
02:50 1025 30.27 854 25.22 -0.8 30.6 62 -7.1 19.2
02:55 1025 30.27 854 25.22 -1.1 30.1 62 -7.4 18.6
03:00 1025 30.27 854 25.22 -1.1 30 62 -7.5 18.5
03:05 1025 30.27 854 25.22 -1.1 30.1 62 -7.4 18.7
03:10 1025 30.27 854 25.22 -1 30.3 61 -7.5 18.5
03:15 1025 30.27 854 25.22 -0.6 30.9 60 -7.4 18.7
03:20 1025 30.27 854 25.22 -0.7 30.8 61 -7.4 18.8
03:25 1025 30.27 854 25.22 -0.6 30.9 60 -7.5 18.6
03:30 1024 30.24 854 25.22 -0.5 31.1 61 -7.1 19.2
03:35 1024 30.24 854 25.22 -0.7 30.8 61 -7.3 18.9
03:40 1024 30.24 854 25.22 -1 30.2 62 -7.3 18.9
03:45 1024 30.24 853 25.19 -1.3 29.7 64 -7.3 18.8
03:50 1024 30.24 853 25.19 -1.4 29.5 63 -7.4 18.6
03:55 1024 30.24 853 25.19 -1.4 29.5 64 -7.3 18.8
04:00 1024 30.24 853 25.19 -1.1 30 63 -7.3 18.8
04:05 1024 30.24 853 25.19 -1.2 29.9 63 -7.4 18.6
04:10 1024 30.24 853 25.19 -1.5 29.3 64 -7.5 18.4
04:15 1024 30.24 853 25.19 -1.7 28.9 64 -7.7 18.1
04:20 1024 30.24 853 25.19 -1.8 28.7 64 -7.7 18.2
04:25 1024 30.24 853 25.19 -1.9 28.6 64 -7.7 18.1
04:30 1024 30.24 853 25.19 -2.4 27.7 65 -8.1 17.5
04:35 1024 30.24 853 25.19 -1.8 28.7 64 -7.8 18
04:40 1024 30.24 853 25.19 -1.3 29.7 63 -7.4 18.7
04:45 1024 30.24 853 25.19 -1.6 29.2 61 -8.1 17.4
04:50 1024 30.24 853 25.19 -1.9 28.6 62 -8.3 17.1
04:55 1024 30.24 853 25.19 -1.8 28.8 61 -8.3 17
05:00 1024 30.24 853 25.19 -2 28.4 64 -7.9 17.8
05:05 1024 30.24 853 25.19 -1 30.2 58 -8.2 17.2
05:10 1024 30.24 853 25.19 -1 30.1 61 -7.7 18.1
05:15 1024 30.24 853 25.19 -0.3 31.5 59 -7.3 18.8
05:20 1024 30.24 853 25.19 -0.7 30.7 62 -7.2 19.1
05:25 1024 30.24 853 25.19 -0.8 30.6 62 -7.3 18.9
05:30 1024 30.24 853 25.19 -0.7 30.7 56 -8.4 16.9
05:35 1024 30.24 853 25.19 -1.3 29.6 59 -8.3 17
05:40 1024 30.24 853 25.19 -1.5 29.4 58 -8.7 16.4
05:45 1024 30.24 853 25.19 -1.6 29.1 62 -8 17.7
05:50 1024 30.24 853 25.19 -0.9 30.3 59 -8 17.5
05:55 1024 30.24 853 25.19 -1.3 29.7 59 -8.3 17.1
06:00 1024 30.24 853 25.19 -2 28.3 64 -7.9 17.8
06:05 1024 30.24 853 25.19 -1.9 28.6 62 -8.3 17.1
06:10 1023 30.21 853 25.19 -1.8 28.7 63 -8 17.5
06:15 1023 30.21 853 25.19 -1.8 28.8 63 -7.9 17.8
06:20 1023 30.21 853 25.19 -2 28.4 64 -7.9 17.8
06:25 1023 30.21 853 25.19 -2 28.4 64 -7.9 17.8
06:30 1023 30.21 853 25.19 -2.5 27.6 66 -7.9 17.8
06:35 1023 30.21 853 25.19 -2.3 27.8 62 -8.7 16.3
06:40 1023 30.21 853 25.19 -2.8 27 65 -8.5 16.7
06:45 1023 30.21 852 25.16 -2.9 26.7 66 -8.5 16.8
06:50 1023 30.21 852 25.16 -1.9 28.6 60 -8.6 16.6
06:55 1023 30.21 852 25.16 -1.6 29.2 58 -8.8 16.2
07:00 1023 30.21 852 25.16 -1.7 29 59 -8.7 16.3
07:05 1023 30.21 852 25.16 -1.4 29.5 57 -8.9 16
07:10 1023 30.21 852 25.16 -1.6 29.1 59 -8.6 16.6
07:15 1023 30.21 852 25.16 -1.3 29.7 59 -8.2 17.2
07:20 1023 30.21 852 25.16 -1.4 29.5 60 -8.2 17.3
07:25 1023 30.21 852 25.16 -2.1 28.2 63 -8.3 17.1
07:30 1023 30.21 852 25.16 -2.7 27.1 65 -8.3 17
07:35 1023 30.21 852 25.16 -2.3 27.8 63 -8.5 16.7
07:40 1023 30.21 852 25.16 -2.2 28.1 62 -8.5 16.7
07:45 1023 30.21 852 25.16 -2.3 27.9 62 -8.7 16.4
07:50 1023 30.21 852 25.16 -1.7 29 60 -8.5 16.7
07:55 1023 30.21 852 25.16 -1.3 29.6 60 -8.2 17.3
08:00 1023 30.21 852 25.16 -1.4 29.4 60 -8.2 17.3
08:05 1023 30.21 852 25.16 -1.9 28.6 61 -8.4 16.8
08:10 1023 30.21 852 25.16 -2 28.4 61 -8.6 16.6
08:15 1023 30.21 852 25.16 -1.8 28.7 60 -8.6 16.5
08:20 1023 30.21 852 25.16 -1.4 29.4 58 -8.6 16.6
08:25 1023 30.21 852 25.16 -1 30.2 57 -8.5 16.8
08:30 1023 30.21 852 25.16 -0.7 30.8 56 -8.4 16.9
08:35 1023 30.21 852 25.16 -0.9 30.4 56 -8.7 16.4
08:40 1023 30.21 852 25.16 -0.8 30.6 56 -8.6 16.6
08:45 1023 30.21 852 25.16 -0.7 30.7 53 -9.2 15.4
08:50 1023 30.21 852 25.16 -0.6 30.9 51 -9.5 15
08:55 1023 30.21 852 25.16 0.1 32.1 50 -9.2 15.4
09:00 1023 30.21 852 25.16 0.2 32.4 48 -9.6 14.7
09:05 1023 30.21 852 25.16 -0.3 31.4 48 -10 14
09:10 1023 30.21 852 25.16 -1.4 29.5 53 -9.8 14.3
09:15 1023 30.21 852 25.16 -0.9 30.5 49 -10.2 13.7
09:20 1023 30.21 852 25.16 -1.3 29.6 53 -9.8 14.4
09:25 1023 30.21 852 25.16 -1.4 29.5 51 -10.3 13.5
09:30 1023 30.21 852 25.16 -1 30.3 50 -10.1 13.9
09:35 1023 30.21 852 25.16 -0.4 31.3 49 -9.8 14.4
09:40 1023 30.21 852 25.16 0 32.1 49 -9.6 14.8
09:45 1023 30.21 852 25.16 1.2 34.2 45 -9.4 15
09:50 1023 30.21 852 25.16 2.3 36.1 43 -9 15.9
09:55 1023 30.21 852 25.16 2.7 36.8 42 -9 15.7
10:00 1023 30.21 852 25.16 2.5 36.5 42 -9 15.8
10:05 1023 30.21 852 25.16 2.3 36.1 44 -8.7 16.4
10:10 1023 30.21 852 25.16 2.1 35.7 46 -8.5 16.8
10:15 1023 30.21 852 25.16 2.1 35.7 46 -8.3 17.1
10:20 1023 30.21 852 25.16 2.7 36.8 44 -8.5 16.8
10:25 1023 30.21 852 25.16 2.8 37 43 -8.5 16.6
10:30 1023 30.21 852 25.16 3.1 37.6 43 -8.3 17.1
10:35 1023 30.21 852 25.16 3.7 38.7 41 -8.3 17.1
10:40 1023 30.21 852 25.16 4 39.3 40 -8.4 16.8
10:45 1023 30.21 852 25.16 3.9 38.9 40 -8.4 16.8
10:50 1023 30.21 852 25.16 3.9 39 40 -8.5 16.7
10:55 1022 30.18 852 25.16 4.4 39.9 40 -8 17.7
11:00 1022 30.18 852 25.16 5.4 41.7 38 -7.9 17.9
11:05 1022 30.18 852 25.16 5.1 41.2 38 -8 17.6
11:10 1022 30.18 852 25.16 5.4 41.6 38 -7.8 18
11:15 1022 30.18 852 25.16 5.6 42.1 40 -7.1 19.3
11:20 1022 30.18 852 25.16 5.8 42.4 39 -7.2 19
11:25 1022 30.18 851 25.13 5.5 41.9 41 -6.6 20
11:30 1022 30.18 851 25.13 5.5 42 38 -7.5 18.5
11:35 1022 30.18 851 25.13 5.8 42.5 40 -6.7 19.9
11:40 1022 30.18 851 25.13 6.1 42.9 38 -7 19.3
11:45 1022 30.18 851 25.13 6 42.8 40 -6.8 19.8
11:50 1022 30.18 851 25.13 5.7 42.2 40 -6.9 19.5
11:55 1022 30.18 851 25.13 5.4 41.7 40 -7.1 19.1
12:00 1022 30.18 851 25.13 5.1 41.3 39 -7.8 18
12:05 1022 30.18 851 25.13 4.8 40.6 41 -7.3 18.8
12:10 1022 30.18 851 25.13 4.3 39.8 43 -7 19.3
12:15 1022 30.18 851 25.13 4.4 39.9 44 -6.8 19.7
12:20 1021 30.15 851 25.13 4.7 40.5 42 -7.2 19.1
12:25 1021 30.15 851 25.13 4.9 40.8 41 -7.2 19
12:30 1021 30.15 851 25.13 5.1 41.2 42 -6.9 19.6
12:35 1021 30.15 851 25.13 5.1 41.3 40 -7.3 18.8
12:40 1021 30.15 850 25.1 5 41.1 42 -7 19.4
12:45 1021 30.15 850 25.1 5.1 41.2 41 -7 19.5
12:50 1021 30.15 850 25.1 5.5 41.9 39 -7.2 19
12:55 1021 30.15 850 25.1 5.2 41.3 43 -6.4 20.4
13:00 1021 30.15 850 25.1 4.8 40.6 42 -7 19.4
13:05 1021 30.15 850 25.1 5.1 41.2 41 -7.2 19
13:10 1021 30.15 850 25.1 5.4 41.8 41 -6.9 19.6
13:15 1021 30.15 850 25.1 6.1 43 39 -6.9 19.5
13:20 1021 30.15 850 25.1 6.2 43.2 37 -7.2 19
13:25 1021 30.15 850 25.1 6.3 43.4 38 -7 19.5
13:30 1020 30.12 850 25.1 6.2 43.2 38 -6.9 19.5
13:35 1020 30.12 850 25.1 5.6 42.2 40 -7.1 19.3
13:40 1020 30.12 850 25.1 5 40.9 41 -7.3 18.8
13:45 1020 30.12 849 25.07 5.5 42 40 -7.1 19.2
13:50 1020 30.12 849 25.07 6.1 43 39 -6.9 19.5
13:55 1020 30.12 849 25.07 6.4 43.5 37 -7.2 19
14:00 1020 30.12 849 25.07 6.6 43.9 38 -6.6 20.2
14:05 1020 30.12 849 25.07 5.8 42.5 40 -6.6 20
14:10 1020 30.12 849 25.07 6.3 43.4 42 -5.7 21.7
14:15 1020 30.12 849 25.07 6.2 43.2 39 -6.9 19.7
14:20 1020 30.12 849 25.07 6.6 43.9 39 -6.3 20.7
14:25 1020 30.12 849 25.07 6.2 43.2 41 -6 21.2
14:30 1020 30.12 849 25.07 5.4 41.7 42 -6.4 20.5
14:35 1019 30.09 849 25.07 5 41.1 43 -6.5 20.3
14:40 1019 30.09 849 25.07 5.6 42 42 -6.3 20.6
14:45 1019 30.09 849 25.07 6.2 43.2 39 -6.7 19.9
14:50 1019 30.09 849 25.07 6.6 43.9 38 -6.5 20.2
14:55 1019 30.09 848 25.04 7.1 44.8 37 -6.7 19.9
15:00 1019 30.09 848 25.04 7.6 45.7 36 -6.4 20.5
15:05 1019 30.09 848 25.04 8.1 46.5 35 -6.3 20.6
15:10 1019 30.09 848 25.04 8.4 47 35 -6.2 20.9
15:15 1019 30.09 848 25.04 8.5 47.2 34 -6.4 20.5
15:20 1019 30.09 848 25.04 8.8 47.8 32 -6.9 19.6
15:25 1019 30.09 848 25.04 8.7 47.7 35 -6 21.3
15:30 1019 30.09 848 25.04 7.9 46.2 37 -5.9 21.3
15:35 1019 30.09 848 25.04 6.4 43.4 40 -6.3 20.6
15:40 1019 30.09 848 25.04 5.6 42.1 42 -6.4 20.5
15:45 1019 30.09 848 25.04 5.7 42.2 40 -6.8 19.8
15:50 1019 30.09 848 25.04 5.6 42.1 40 -7 19.3
15:55 1019 30.09 848 25.04 5.6 42 38 -7.5 18.5
16:00 1019 30.09 848 25.04 5.7 42.2 40 -7 19.4
16:05 1019 30.09 848 25.04 5.8 42.5 40 -6.8 19.7
16:10 1019 30.09 848 25.04 6.2 43.1 38 -7.1 19.3
16:15 1019 30.09 848 25.04 6.4 43.6 35 -7.8 18
16:20 1019 30.09 848 25.04 6.7 44 36 -7.3 18.9
16:25 1019 30.09 848 25.04 6.9 44.4 35 -7.6 18.4
16:30 1019 30.09 848 25.04 6.6 43.8 37 -7.2 19.1
16:35 1019 30.09 848 25.04 6.4 43.5 37 -7.1 19.2
16:40 1019 30.09 848 25.04 6.3 43.3 37 -7.3 18.9
16:45 1018 30.06 848 25.04 6.5 43.8 36 -7.6 18.4
16:50 1018 30.06 848 25.04 6.9 44.4 37 -6.7 19.9
16:55 1018 30.06 848 25.04 7.1 44.9 36 -6.8 19.7
17:00 1018 30.06 848 25.04 6.5 43.8 40 -6.1 21
17:05 1018 30.06 848 25.04 5.5 42 42 -6.3 20.6
17:10 1018 30.06 847 25.01 4.7 40.5 43 -6.8 19.7
17:15 1018 30.06 847 25.01 4.2 39.5 44 -7 19.5
17:20 1018 30.06 847 25.01 4.1 39.3 44 -7.1 19.2
17:25 1018 30.06 847 25.01 4.1 39.4 43 -7.3 18.8
17:30 1018 30.06 847 25.01 4.2 39.5 43 -7.3 18.9
17:35 1018 30.06 847 25.01 4.1 39.3 43 -7.3 18.9
17:40 1018 30.06 847 25.01 4 39.1 44 -7.3 18.9
17:45 1018 30.06 847 25.01 4 39.1 43 -7.6 18.3
17:50 1018 30.06 847 25.01 4 39.3 42 -7.8 17.9
17:55 1018 30.06 847 25.01 4 39.2 41 -7.9 17.7
18:00 1018 30.06 847 25.01 3.9 39 43 -7.5 18.5
18:05 1018 30.06 847 25.01 3.5 38.3 45 -7.3 18.9
18:10 1018 30.06 847 25.01 3.3 37.9 45 -7.5 18.6
18:15 1018 30.06 847 25.01 3.1 37.6 46 -7.3 18.8
18:20 1018 30.06 847 25.01 2.8 37.1 45 -7.8 17.9
18:25 1018 30.06 847 25.01 2.9 37.2 45 -8 17.6
18:30 1018 30.06 847 25.01 3.3 37.9 44 -7.9 17.8
18:35 1018 30.06 847 25.01 3.7 38.6 45 -7.2 19.1
18:40 1018 30.06 847 25.01 3.4 38.2 44 -7.7 18.1
18:45 1018 30.06 847 25.01 3.7 38.7 44 -7.5 18.5
18:50 1018 30.06 847 25.01 2.7 36.9 45 -7.9 17.8
18:55 1018 30.06 847 25.01 3.3 38 43 -8.2 17.3
19:00 1018 30.06 847 25.01 4 39.2 41 -8 17.7
19:05 1018 30.06 847 25.01 4.5 40.1 42 -7.3 18.8
19:10 1018 30.06 847 25.01 3.7 38.6 47 -6.5 20.4
19:15 1018 30.06 847 25.01 2.7 36.8 50 -6.6 20.1
19:20 1018 30.06 847 25.01 2.5 36.4 49 -7.3 18.9
19:25 1018 30.06 847 25.01 2.7 36.9 50 -6.7 20
19:30 1018 30.06 847 25.01 2 35.7 52 -6.8 19.8
19:35 1018 30.06 847 25.01 1.6 34.9 52 -7.2 19.1
19:40 1018 30.06 847 25.01 1.7 35.1 46 -8.7 16.3
19:45 1018 30.06 847 25.01 2.7 36.8 48 -7.4 18.7
19:50 1018 30.06 847 25.01 2.8 37.1 49 -6.8 19.8
19:55 1018 30.06 847 25.01 2.7 36.9 49 -6.9 19.6
20:00 1018 30.06 847 25.01 2.8 37 48 -7 19.3
20:05 1018 30.06 847 25.01 3 37.4 48 -6.9 19.6
20:10 1018 30.06 847 25.01 2.6 36.6 50 -6.7 19.9
20:15 1018 30.06 847 25.01 2.5 36.5 51 -6.8 19.8
20:20 1018 30.06 847 25.01 2.2 36 52 -6.7 20
20:25 1018 30.06 847 25.01 2 35.6 53 -6.7 19.9
20:30 1018 30.06 847 25.01 1.7 35 54 -6.6 20.1
20:35 1018 30.06 847 25.01 1.4 34.5 55 -6.7 19.9
20:40 1018 30.06 847 25.01 1.7 35 53 -7 19.4
20:45 1018 30.06 847 25.01 1.7 35.1 52 -7.1 19.2
20:50 1018 30.06 847 25.01 1.9 35.4 51 -7.1 19.2
20:55 1018 30.06 848 25.04 1.8 35.2 50 -7.6 18.4
21:00 1018 30.06 848 25.04 2.2 35.9 49 -7.5 18.5
21:05 1018 30.06 848 25.04 2.2 36 49 -7.3 18.8
21:10 1018 30.06 848 25.04 2.3 36.1 49 -7.3 18.9
21:15 1018 30.06 848 25.04 2.5 36.5 48 -7.3 18.9
21:20 1019 30.09 848 25.04 2.3 36.2 50 -7 19.4
21:25 1019 30.09 848 25.04 2.2 35.9 50 -7.1 19.3
21:30 1019 30.09 848 25.04 2.1 35.8 50 -7.4 18.8
21:35 1019 30.09 848 25.04 1.8 35.2 52 -7.2 19.1
21:40 1019 30.09 848 25.04 1.9 35.4 50 -7.4 18.6
21:45 1019 30.09 848 25.04 1.5 34.7 53 -7 19.3
21:50 1019 30.09 848 25.04 1.4 34.5 53 -7.3 18.9
21:55 1019 30.09 848 25.04 1.8 35.2 52 -7 19.5
22:00 1019 30.09 848 25.04 2.3 36.2 51 -6.9 19.6
22:05 1019 30.09 848 25.04 2.3 36.1 50 -7 19.4
22:10 1019 30.09 848 25.04 2.1 35.8 51 -6.9 19.6
22:15 1019 30.09 848 25.04 2.2 36 49 -7.3 18.8
22:20 1019 30.09 848 25.04 2.2 35.9 51 -7 19.4
22:25 1019 30.09 848 25.04 1.5 34.6 56 -6.5 20.3
22:30 1019 30.09 848 25.04 2 35.5 51 -7.1 19.2
22:35 1019 30.09 848 25.04 1.7 35 56 -6.3 20.7
22:40 1019 30.09 848 25.04 1.1 33.9 55 -7.1 19.3
22:45 1019 30.09 848 25.04 0.9 33.6 57 -6.7 20
22:50 1019 30.09 848 25.04 0.9 33.6 58 -6.5 20.3
22:55 1019 30.09 848 25.04 1.5 34.6 56 -6.4 20.5
23:00 1019 30.09 848 25.04 1.7 35 53 -6.9 19.6
23:05 1019 30.09 848 25.04 1.4 34.5 54 -6.9 19.6
23:10 1019 30.09 848 25.04 1.4 34.6 53 -7.2 19.1
23:15 1019 30.09 848 25.04 1.1 34.1 55 -6.8 19.8
23:20 1019 30.09 848 25.04 0.9 33.5 55 -7.1 19.1
23:25 1019 30.09 848 25.04 0.5 32.9 56 -7.2 19
23:30 1019 30.09 848 25.04 0.7 33.3 56 -7.1 19.1
23:35 1019 30.09 848 25.04 0.8 33.5 56 -7 19.3
23:40 1019 30.09 848 25.04 0.8 33.4 55 -7.2 19.1
23:45 1019 30.09 848 25.04 0.5 32.9 57 -7 19.4
23:50 1019 30.09 848 25.04 0.2 32.4 58 -7.2 19.1
23:55 1019 30.09 848 25.04 -0.4 31.3 59 -7.4 18.7
24:00 1019 30.09 848 25.04 -1 30.3 62 -7.4 18.7